Time;durP1;ratioP1;P1;durP2;ratioP2;P2;SDS_P1;SDS_P2;PMS_P1;PMS_P2;Temp;Humidity;BMP_temperature;BMP_pressure;BME280_temperature;BME280_humidity;BME280_pressure;Samples;Min_cycle;Max_cycle;Signal;HPM_P1;HPM_P2
2023/09/15 00:00:43;;;;;;;10.43;6.55;;;16.20;99.90;;;;;;5051391;28;20463;-40
2023/09/15 00:03:08;;;;;;;8.88;5.80;;;16.20;99.90;;;;;;5049947;28;20520;-40
2023/09/15 00:05:34;;;;;;;7.70;5.63;;;16.20;99.90;;;;;;5049510;28;20032;-41
2023/09/15 00:08:04;;;;;;;7.68;5.65;;;16.30;99.90;;;;;;5051054;28;20856;-38
2023/09/15 00:10:38;;;;;;;8.77;6.03;;;16.40;99.90;;;;;;5050686;28;20043;-35
2023/09/15 00:13:04;;;;;;;7.40;5.38;;;16.40;99.90;;;;;;5048598;28;20024;-37
2023/09/15 00:15:30;;;;;;;8.68;5.55;;;16.40;99.90;;;;;;5052450;28;20822;-41
2023/09/15 00:17:56;;;;;;;8.77;5.38;;;16.40;99.90;;;;;;5048077;28;20024;-36
2023/09/15 00:20:24;;;;;;;12.00;5.15;;;16.30;99.90;;;;;;5050365;28;20115;-40
2023/09/15 00:22:51;;;;;;;9.38;5.55;;;16.30;99.90;;;;;;5048979;28;20025;-34
2023/09/15 00:25:22;;;;;;;5.77;4.93;;;16.40;99.90;;;;;;5046652;28;20616;-32
2023/09/15 00:27:50;;;;;;;5.95;4.47;;;16.30;99.90;;;;;;5046743;28;20033;-36
2023/09/15 00:30:17;;;;;;;8.40;4.95;;;16.30;99.90;;;;;;5046884;28;20037;-33
2023/09/15 00:32:43;;;;;;;8.23;5.00;;;16.10;99.90;;;;;;5041851;28;20110;-35
2023/09/15 00:35:09;;;;;;;6.90;5.28;;;16.10;99.90;;;;;;5035390;28;20549;-33
2023/09/15 00:37:35;;;;;;;6.07;5.15;;;15.90;99.90;;;;;;5047035;28;20044;-33
2023/09/15 00:40:00;;;;;;;7.30;5.35;;;15.90;99.90;;;;;;5044946;28;20145;-33
2023/09/15 00:42:26;;;;;;;7.97;5.00;;;15.80;99.90;;;;;;5041526;28;20025;-32
2023/09/15 00:44:52;;;;;;;6.80;5.30;;;15.80;99.90;;;;;;5046990;28;20127;-32
2023/09/15 00:47:18;;;;;;;7.80;5.07;;;15.80;99.90;;;;;;5048757;28;20132;-34
2023/09/15 00:49:45;;;;;;;6.05;4.88;;;15.80;99.90;;;;;;5048421;28;20111;-32
2023/09/15 00:52:11;;;;;;;6.75;5.43;;;15.80;99.90;;;;;;5045898;28;20086;-32
2023/09/15 00:54:38;;;;;;;6.95;5.55;;;15.70;99.90;;;;;;5048177;28;20032;-33
2023/09/15 00:57:04;;;;;;;10.90;6.50;;;15.70;99.90;;;;;;5049587;28;20504;-34
2023/09/15 00:59:31;;;;;;;7.75;5.90;;;15.70;99.90;;;;;;5049143;28;20115;-35
2023/09/15 01:01:57;;;;;;;6.28;5.38;;;15.70;99.90;;;;;;5047274;28;20029;-37
2023/09/15 01:04:24;;;;;;;6.70;5.60;;;15.70;99.90;;;;;;5047706;28;20033;-33
2023/09/15 01:06:50;;;;;;;7.15;5.25;;;15.70;99.90;;;;;;5046057;28;20029;-35
2023/09/15 01:09:16;;;;;;;8.18;5.30;;;15.60;99.90;;;;;;5047952;28;20083;-32
2023/09/15 01:11:42;;;;;;;6.95;5.82;;;15.60;99.90;;;;;;5049760;28;20020;-33
2023/09/15 01:14:08;;;;;;;8.73;6.05;;;15.60;99.90;;;;;;5042166;28;20036;-33
2023/09/15 01:16:46;;;;;;;7.90;5.55;;;15.50;99.90;;;;;;5033858;28;20021;-36
2023/09/15 01:19:12;;;;;;;;;;;15.40;99.90;;;;;;5045630;28;20410;-36
2023/09/15 01:21:40;;;;;;;8.23;5.45;;;15.40;99.90;;;;;;5046797;28;19916;-32
2023/09/15 01:24:22;;;;;;;6.85;5.30;;;15.40;99.90;;;;;;5041806;28;20108;-33
2023/09/15 01:27:06;;;;;;;5.55;4.72;;;15.30;99.90;;;;;;5044650;28;20042;-34
2023/09/15 01:29:40;;;;;;;7.07;5.38;;;15.30;99.90;;;;;;5043005;28;20021;-32
2023/09/15 01:32:08;;;;;;;9.40;5.72;;;15.10;99.90;;;;;;5047310;28;20040;-36
2023/09/15 01:34:39;;;;;;;9.07;6.63;;;14.90;99.90;;;;;;5048979;28;20082;-30
2023/09/15 01:37:04;;;;;;;9.60;6.80;;;14.90;99.90;;;;;;5046675;28;20036;-32
2023/09/15 01:39:30;;;;;;;9.90;6.88;;;14.90;99.90;;;;;;5050415;28;20032;-31
2023/09/15 01:42:00;;;;;;;9.80;6.88;;;14.80;99.90;;;;;;5047445;28;20024;-29
2023/09/15 01:44:26;;;;;;;11.48;7.82;;;14.80;99.90;;;;;;5051403;28;20048;-30
2023/09/15 01:46:53;;;;;;;11.07;7.57;;;14.80;99.90;;;;;;5043158;28;20501;-33
2023/09/15 01:49:20;;;;;;;10.45;7.22;;;14.80;99.90;;;;;;5039384;28;20391;-31
2023/09/15 01:51:47;;;;;;;9.70;7.00;;;14.70;99.90;;;;;;5030786;28;20485;-35
2023/09/15 01:54:14;;;;;;;9.73;7.10;;;14.70;99.90;;;;;;5030450;28;20120;-33
2023/09/15 01:56:39;;;;;;;10.45;7.38;;;14.70;99.90;;;;;;5035329;28;20419;-34
2023/09/15 01:59:05;;;;;;;9.85;6.72;;;14.60;99.90;;;;;;5050701;28;20029;-30
2023/09/15 02:01:31;;;;;;;11.45;7.38;;;14.50;99.90;;;;;;5045039;28;20141;-30
2023/09/15 02:03:56;;;;;;;10.90;7.13;;;14.60;99.90;;;;;;5044727;28;20391;-31
2023/09/15 02:06:22;;;;;;;12.07;6.85;;;14.60;99.90;;;;;;5045590;28;20025;-33
2023/09/15 02:08:47;;;;;;;10.20;7.13;;;14.50;99.90;;;;;;5047403;28;20043;-34
2023/09/15 02:11:13;;;;;;;10.38;7.05;;;14.40;99.90;;;;;;5045958;28;20033;-33
2023/09/15 02:13:43;;;;;;;10.32;6.97;;;14.40;99.90;;;;;;5047466;28;20872;-33
2023/09/15 02:16:09;;;;;;;9.38;6.53;;;14.30;99.90;;;;;;5042024;28;20130;-33
2023/09/15 02:18:35;;;;;;;10.30;6.32;;;14.30;99.90;;;;;;5044625;28;20041;-31
2023/09/15 02:21:00;;;;;;;8.68;5.70;;;14.20;99.90;;;;;;5047276;28;20402;-33
2023/09/15 02:23:26;;;;;;;8.68;5.60;;;14.20;99.90;;;;;;5044848;28;20033;-32
2023/09/15 02:25:52;;;;;;;9.55;6.07;;;14.30;99.90;;;;;;5044964;28;20071;-33
2023/09/15 02:28:21;;;;;;;9.50;6.65;;;14.30;99.90;;;;;;5044327;28;20646;-33
2023/09/15 02:30:47;;;;;;;7.97;6.25;;;14.30;99.90;;;;;;5042813;28;20094;-35
2023/09/15 02:33:13;;;;;;;8.25;6.03;;;14.20;99.90;;;;;;5041522;28;20082;-36
2023/09/15 02:35:38;;;;;;;9.10;5.57;;;14.20;99.90;;;;;;5043995;28;20474;-32
2023/09/15 02:38:04;;;;;;;7.63;5.97;;;14.20;99.90;;;;;;5050394;28;20116;-35
2023/09/15 02:40:30;;;;;;;8.15;6.30;;;14.20;99.90;;;;;;5045808;28;20135;-33
2023/09/15 02:42:56;;;;;;;8.90;5.97;;;14.10;99.90;;;;;;5044230;28;21763;-33
2023/09/15 02:45:22;;;;;;;6.20;4.97;;;14.10;99.90;;;;;;5046665;28;20128;-40
2023/09/15 02:47:47;;;;;;;6.70;5.25;;;14.20;99.90;;;;;;5045675;28;20123;-39
2023/09/15 02:50:13;;;;;;;7.63;5.40;;;14.30;99.90;;;;;;5046286;28;20028;-39
2023/09/15 02:52:39;;;;;;;10.02;5.90;;;14.30;99.90;;;;;;5043003;28;20020;-40
2023/09/15 02:55:05;;;;;;;9.75;6.13;;;14.30;99.90;;;;;;5044949;28;20021;-38
2023/09/15 02:57:31;;;;;;;8.40;6.40;;;14.30;99.90;;;;;;5043248;28;20050;-40
2023/09/15 02:59:56;;;;;;;8.05;5.70;;;14.30;99.90;;;;;;5044943;28;20059;-38
2023/09/15 03:02:22;;;;;;;9.50;6.68;;;14.20;99.90;;;;;;5045479;28;20067;-38
2023/09/15 03:04:48;;;;;;;9.73;6.50;;;14.20;99.90;;;;;;5047020;28;20037;-35
2023/09/15 03:07:15;;;;;;;8.50;6.18;;;14.20;99.90;;;;;;5051167;28;20044;-39
2023/09/15 03:09:41;;;;;;;10.20;6.82;;;14.20;99.90;;;;;;5048162;28;20109;-40
2023/09/15 03:12:06;;;;;;;8.70;5.78;;;14.20;99.90;;;;;;5049538;28;20112;-37
2023/09/15 03:14:32;;;;;;;12.00;6.47;;;14.10;99.90;;;;;;5048379;28;20032;-40
2023/09/15 03:16:58;;;;;;;8.35;6.32;;;14.10;99.90;;;;;;5049372;28;20037;-36
2023/09/15 03:19:24;;;;;;;6.72;4.70;;;14.00;99.90;;;;;;5045581;28;21136;-39
2023/09/15 03:21:50;;;;;;;9.07;5.22;;;14.10;99.90;;;;;;5049537;28;20033;-39
2023/09/15 03:24:16;;;;;;;7.30;5.25;;;14.10;99.90;;;;;;5050175;28;20029;-38
2023/09/15 03:26:42;;;;;;;6.75;5.00;;;14.00;99.90;;;;;;5048211;28;20036;-40
2023/09/15 03:29:08;;;;;;;5.72;4.78;;;13.90;99.90;;;;;;5050634;28;20031;-37
2023/09/15 03:31:34;;;;;;;5.90;4.28;;;13.90;99.90;;;;;;5046686;28;20582;-41
2023/09/15 03:33:59;;;;;;;7.78;5.35;;;13.70;99.90;;;;;;5049700;28;20025;-41
2023/09/15 03:36:29;;;;;;;8.55;6.30;;;13.60;99.90;;;;;;5045241;28;20028;-41
2023/09/15 03:38:55;;;;;;;11.48;6.20;;;13.50;99.90;;;;;;5045784;28;20415;-41
2023/09/15 03:41:21;;;;;;;14.80;6.38;;;13.30;99.90;;;;;;5044969;28;20033;-39
2023/09/15 03:43:47;;;;;;;8.50;5.88;;;13.10;99.90;;;;;;5044346;28;20051;-35
2023/09/15 03:46:12;;;;;;;10.10;6.78;;;13.00;99.90;;;;;;5050530;28;20498;-36
2023/09/15 03:48:38;;;;;;;12.73;7.07;;;13.00;99.90;;;;;;5049399;28;20044;-40
2023/09/15 03:51:03;;;;;;;11.68;7.85;;;13.10;99.90;;;;;;5045740;28;20104;-35
2023/09/15 03:53:29;;;;;;;11.38;7.53;;;13.00;99.90;;;;;;5048171;28;20474;-35
2023/09/15 03:55:54;;;;;;;11.68;7.78;;;13.00;99.90;;;;;;5047972;28;20025;-32
2023/09/15 03:58:20;;;;;;;12.38;7.28;;;13.20;99.90;;;;;;5046502;28;20036;-34
2023/09/15 04:00:46;;;;;;;13.18;8.80;;;13.20;99.90;;;;;;5045018;28;21082;-32
2023/09/15 04:03:11;;;;;;;13.60;7.72;;;13.20;99.90;;;;;;5049476;28;20040;-32
2023/09/15 04:05:38;;;;;;;12.95;8.18;;;13.10;99.90;;;;;;5048127;28;20028;-34
2023/09/15 04:08:03;;;;;;;11.40;8.43;;;13.00;99.90;;;;;;5047396;28;20071;-36
2023/09/15 04:10:29;;;;;;;11.55;7.72;;;13.10;99.90;;;;;;5044051;28;20868;-33
2023/09/15 04:12:55;;;;;;;12.32;8.02;;;13.00;99.90;;;;;;5063517;28;20029;-32
2023/09/15 04:15:20;;;;;;;11.95;8.23;;;13.10;99.90;;;;;;5045332;28;20025;-32
2023/09/15 04:17:46;;;;;;;12.45;8.25;;;13.10;99.90;;;;;;5044427;28;20074;-35
2023/09/15 04:20:12;;;;;;;12.45;7.18;;;13.10;99.90;;;;;;5046690;28;20067;-32
2023/09/15 04:22:39;;;;;;;13.48;7.75;;;13.10;99.90;;;;;;5047252;28;20033;-33
2023/09/15 04:25:06;;;;;;;12.40;7.80;;;13.10;99.90;;;;;;5047696;28;20501;-37
2023/09/15 04:27:32;;;;;;;11.02;6.90;;;13.00;99.90;;;;;;5049630;28;20527;-33
2023/09/15 04:29:58;;;;;;;13.50;7.70;;;13.00;99.90;;;;;;5044531;28;20454;-35
2023/09/15 04:32:24;;;;;;;13.70;8.10;;;12.90;99.90;;;;;;5037834;28;20127;-34
2023/09/15 04:34:50;;;;;;;10.25;7.00;;;12.90;99.90;;;;;;5041087;28;20037;-35
2023/09/15 04:37:17;;;;;;;10.98;6.90;;;12.90;99.90;;;;;;5042403;28;20108;-35
2023/09/15 04:39:43;;;;;;;10.82;6.75;;;12.90;99.90;;;;;;5046014;28;20040;-37
2023/09/15 04:42:10;;;;;;;10.98;7.07;;;13.00;99.90;;;;;;5047174;28;20033;-36
2023/09/15 04:44:36;;;;;;;11.60;7.55;;;13.00;99.90;;;;;;5047658;28;20526;-32
2023/09/15 04:47:01;;;;;;;10.82;7.63;;;12.90;99.90;;;;;;5043886;28;20037;-35
2023/09/15 04:49:27;;;;;;;10.98;7.07;;;12.90;99.90;;;;;;5041964;28;20036;-31
2023/09/15 04:51:53;;;;;;;13.45;7.18;;;12.80;99.90;;;;;;5045415;28;20456;-33
2023/09/15 04:54:19;;;;;;;12.57;7.47;;;12.70;99.90;;;;;;5044514;28;20033;-35
2023/09/15 04:56:45;;;;;;;10.90;6.55;;;12.60;99.90;;;;;;5042292;28;20040;-32
2023/09/15 04:59:15;;;;;;;13.02;7.40;;;12.60;99.90;;;;;;5046827;28;20029;-32
2023/09/15 05:01:44;;;;;;;10.52;6.85;;;12.60;99.90;;;;;;5039966;28;20155;-32
2023/09/15 05:04:11;;;;;;;11.20;7.60;;;12.70;99.90;;;;;;5045003;28;20525;-30
2023/09/15 05:06:37;;;;;;;11.45;6.25;;;12.70;99.90;;;;;;5045737;28;20477;-33
2023/09/15 05:09:09;;;;;;;12.68;6.95;;;12.80;99.90;;;;;;5044174;28;20404;-36
2023/09/15 05:11:35;;;;;;;9.32;6.78;;;12.80;99.90;;;;;;5043293;28;20020;-33
2023/09/15 05:14:01;;;;;;;9.77;6.60;;;12.70;99.90;;;;;;5044912;28;20031;-32
2023/09/15 05:16:27;;;;;;;7.70;6.03;;;12.60;99.90;;;;;;5043170;28;20092;-31
2023/09/15 05:18:52;;;;;;;8.32;6.18;;;12.60;99.90;;;;;;5042430;28;20539;-34
2023/09/15 05:21:18;;;;;;;11.02;6.63;;;12.50;99.90;;;;;;5040533;28;20032;-32
2023/09/15 05:23:43;;;;;;;12.57;7.05;;;12.50;99.90;;;;;;5041049;28;20119;-30
2023/09/15 05:26:09;;;;;;;13.23;6.93;;;12.40;99.90;;;;;;5043628;28;22226;-32
2023/09/15 05:28:34;;;;;;;12.63;7.30;;;12.40;99.90;;;;;;5051981;28;20024;-35
2023/09/15 05:31:00;;;;;;;10.48;6.90;;;12.40;99.90;;;;;;5046148;28;20513;-30
2023/09/15 05:33:26;;;;;;;9.70;6.53;;;12.30;99.90;;;;;;5046955;28;20509;-31
2023/09/15 05:35:55;;;;;;;15.65;7.10;;;12.30;99.90;;;;;;5041053;28;20032;-30
2023/09/15 05:38:22;;;;;;;10.85;7.22;;;12.30;99.90;;;;;;5044920;28;20040;-30
2023/09/15 05:40:49;;;;;;;12.43;7.65;;;12.40;99.90;;;;;;5044069;28;20041;-30
2023/09/15 05:43:16;;;;;;;14.63;8.73;;;12.50;99.90;;;;;;5046308;28;20028;-30
2023/09/15 05:45:42;;;;;;;15.98;8.45;;;12.70;99.90;;;;;;5050946;28;20517;-30
2023/09/15 05:48:12;;;;;;;14.57;9.13;;;12.80;99.90;;;;;;5044719;28;20041;-30
2023/09/15 05:50:39;;;;;;;13.48;8.90;;;12.90;99.90;;;;;;5044008;28;20100;-33
2023/09/15 05:53:05;;;;;;;13.20;8.88;;;13.00;99.90;;;;;;5064058;28;20112;-34
2023/09/15 05:55:32;;;;;;;16.00;9.05;;;13.10;99.90;;;;;;5046776;28;20375;-31
2023/09/15 05:57:58;;;;;;;13.27;8.43;;;13.10;99.90;;;;;;5051029;28;20799;-30
2023/09/15 06:00:24;;;;;;;15.13;9.30;;;13.30;99.90;;;;;;5050037;28;20056;-33
2023/09/15 06:02:49;;;;;;;17.92;10.60;;;13.30;99.90;;;;;;5046809;28;20048;-30
2023/09/15 06:05:17;;;;;;;25.67;14.18;;;13.40;99.90;;;;;;5047389;28;20041;-30
2023/09/15 06:07:43;;;;;;;30.63;15.50;;;13.50;99.90;;;;;;5041475;28;20490;-31
2023/09/15 06:10:09;;;;;;;31.70;15.95;;;13.60;99.90;;;;;;5045762;28;20033;-31
2023/09/15 06:12:34;;;;;;;31.52;15.18;;;13.70;99.90;;;;;;5034873;28;20020;-30
2023/09/15 06:15:00;;;;;;;39.63;16.80;;;13.80;99.90;;;;;;5046300;28;20074;-40
2023/09/15 06:17:27;;;;;;;37.63;16.15;;;13.80;99.90;;;;;;5044649;28;20040;-40
2023/09/15 06:19:53;;;;;;;33.78;14.82;;;13.80;99.90;;;;;;5060603;28;20037;-39
2023/09/15 06:22:19;;;;;;;36.03;16.27;;;13.90;99.90;;;;;;5057896;28;20471;-36
2023/09/15 06:24:45;;;;;;;35.50;15.55;;;13.90;99.90;;;;;;5026846;28;20036;-39
2023/09/15 06:27:10;;;;;;;32.00;15.48;;;13.90;99.90;;;;;;5062266;28;20034;-40
2023/09/15 06:29:36;;;;;;;27.98;14.15;;;13.90;99.90;;;;;;5043711;28;20025;-40
2023/09/15 06:32:02;;;;;;;30.85;15.60;;;13.90;99.90;;;;;;5039079;28;20128;-39
2023/09/15 06:34:27;;;;;;;35.05;14.70;;;14.00;99.90;;;;;;5045780;28;20378;-40
2023/09/15 06:36:53;;;;;;;33.33;15.98;;;14.10;99.90;;;;;;5047325;28;20040;-39
2023/09/15 06:39:22;;;;;;;32.63;15.68;;;14.10;99.90;;;;;;5048407;28;20021;-40
2023/09/15 06:41:48;;;;;;;28.40;14.82;;;14.10;99.90;;;;;;5051085;28;20043;-39
2023/09/15 06:44:13;;;;;;;31.45;15.95;;;14.10;99.90;;;;;;5050787;28;20045;-39
2023/09/15 06:46:39;;;;;;;32.72;14.75;;;14.10;99.90;;;;;;5064342;28;20071;-40
2023/09/15 06:49:04;;;;;;;29.30;14.65;;;14.10;99.90;;;;;;5050514;28;20060;-38
2023/09/15 06:51:32;;;;;;;29.67;15.27;;;14.20;99.90;;;;;;5049374;28;20032;-40
2023/09/15 06:53:58;;;;;;;32.38;15.45;;;14.20;99.90;;;;;;5047893;28;20390;-37
2023/09/15 06:56:23;;;;;;;29.52;15.02;;;14.30;99.90;;;;;;5044778;28;20040;-39
2023/09/15 06:58:49;;;;;;;31.05;15.73;;;14.30;99.90;;;;;;5046314;28;20496;-40
2023/09/15 07:01:14;;;;;;;29.73;16.13;;;14.40;99.90;;;;;;5046616;28;20041;-39
2023/09/15 07:03:40;;;;;;;25.17;14.57;;;14.30;99.90;;;;;;5049584;28;20029;-38
2023/09/15 07:06:06;;;;;;;30.67;14.50;;;14.40;99.90;;;;;;5049269;28;20032;-40
2023/09/15 07:08:32;;;;;;;29.17;14.30;;;14.40;99.90;;;;;;5046705;28;20486;-40
2023/09/15 07:10:58;;;;;;;32.67;15.32;;;14.50;99.90;;;;;;5049516;28;20067;-39
2023/09/15 07:13:23;;;;;;;27.08;14.25;;;14.50;99.90;;;;;;5049586;28;20676;-39
2023/09/15 07:15:49;;;;;;;28.35;14.52;;;14.50;99.90;;;;;;5037599;28;20037;-37
2023/09/15 07:18:15;;;;;;;23.15;13.15;;;14.60;99.90;;;;;;5040228;28;20476;-40
2023/09/15 07:20:41;;;;;;;27.27;13.98;;;14.60;99.90;;;;;;5050200;28;20021;-40
2023/09/15 07:23:07;;;;;;;28.65;14.48;;;14.70;99.90;;;;;;5049324;28;20048;-40
2023/09/15 07:25:32;;;;;;;26.95;13.90;;;14.70;99.90;;;;;;5053774;28;20037;-32
2023/09/15 07:27:58;;;;;;;27.27;13.63;;;14.70;99.90;;;;;;5052031;28;20039;-36
2023/09/15 07:30:25;;;;;;;25.75;13.20;;;14.80;99.90;;;;;;5048261;28;20029;-32
2023/09/15 07:32:51;;;;;;;27.40;14.23;;;14.80;99.90;;;;;;5046383;28;20076;-35
2023/09/15 07:35:17;;;;;;;24.90;14.32;;;14.80;99.90;;;;;;5046929;28;20041;-35
2023/09/15 07:37:42;;;;;;;26.50;13.45;;;14.90;99.90;;;;;;5050153;28;20498;-33
2023/09/15 07:40:08;;;;;;;25.48;13.93;;;14.90;99.90;;;;;;5045694;28;20033;-34
2023/09/15 07:42:35;;;;;;;24.33;12.80;;;15.00;99.90;;;;;;5052928;28;20032;-33
2023/09/15 07:45:01;;;;;;;24.58;13.20;;;15.10;99.90;;;;;;5048874;28;20037;-34
2023/09/15 07:47:26;;;;;;;23.45;12.93;;;15.10;99.90;;;;;;5042737;28;20088;-33
2023/09/15 07:49:52;;;;;;;26.30;13.68;;;15.30;99.90;;;;;;5047808;28;20491;-32
2023/09/15 07:52:18;;;;;;;24.98;12.90;;;15.40;99.90;;;;;;5050399;28;20402;-33
2023/09/15 07:54:45;;;;;;;26.08;14.48;;;15.40;99.90;;;;;;5049606;28;20056;-32
2023/09/15 07:57:11;;;;;;;23.40;12.70;;;15.30;99.90;;;;;;5052962;28;20035;-32
2023/09/15 07:59:36;;;;;;;22.05;12.50;;;15.50;99.90;;;;;;5050694;28;20079;-32
2023/09/15 08:02:04;;;;;;;22.33;12.15;;;15.50;99.90;;;;;;5046412;28;20075;-34
2023/09/15 08:04:30;;;;;;;23.90;12.85;;;15.60;99.90;;;;;;5049397;28;20035;-40
2023/09/15 08:06:56;;;;;;;25.88;13.50;;;15.70;99.90;;;;;;5042059;28;20430;-39
2023/09/15 08:09:21;;;;;;;24.38;12.57;;;15.80;99.90;;;;;;5044620;28;20025;-40
2023/09/15 08:11:47;;;;;;;21.02;12.10;;;15.70;99.90;;;;;;5053297;28;20286;-39
2023/09/15 08:14:14;;;;;;;22.67;12.68;;;15.80;99.90;;;;;;5048356;28;20033;-38
2023/09/15 08:16:40;;;;;;;25.08;12.43;;;15.90;99.90;;;;;;5046417;28;20025;-39
2023/09/15 08:19:06;;;;;;;21.48;12.55;;;16.00;99.90;;;;;;5048383;28;20056;-39
2023/09/15 08:21:32;;;;;;;24.52;13.88;;;16.20;99.90;;;;;;5051075;28;20023;-39
2023/09/15 08:23:57;;;;;;;24.17;13.13;;;16.30;99.90;;;;;;5049483;28;20123;-37
2023/09/15 08:26:25;;;;;;;22.45;11.80;;;16.50;99.90;;;;;;5050748;28;20082;-40
2023/09/15 08:28:50;;;;;;;24.13;15.85;;;16.50;99.90;;;;;;5049154;28;20036;-40
2023/09/15 08:31:16;;;;;;;27.65;15.18;;;16.60;99.90;;;;;;5045660;28;20127;-40
2023/09/15 08:33:45;;;;;;;21.13;13.02;;;16.50;99.90;;;;;;5048412;28;20029;-30
2023/09/15 08:36:10;;;;;;;25.58;13.75;;;16.60;99.90;;;;;;5047275;28;20051;-29
2023/09/15 08:38:36;;;;;;;19.23;12.05;;;16.90;99.90;;;;;;5044228;28;20017;-30
2023/09/15 08:41:10;;;;;;;17.88;10.95;;;17.30;99.90;;;;;;5043716;28;20029;-33
2023/09/15 08:43:36;;;;;;;21.90;15.95;;;17.40;99.90;;;;;;5046383;28;20049;-31
2023/09/15 08:46:05;;;;;;;19.48;12.10;;;17.50;99.90;;;;;;5047728;28;20425;-31
2023/09/15 08:48:38;;;;;;;19.20;12.02;;;17.80;99.90;;;;;;5051113;28;20087;-31
2023/09/15 08:51:05;;;;;;;17.77;11.23;;;18.00;99.90;;;;;;5052465;28;20161;-36
2023/09/15 08:53:32;;;;;;;18.67;11.52;;;18.20;99.90;;;;;;5048635;28;20036;-30
2023/09/15 08:55:57;;;;;;;14.88;9.38;;;18.30;99.90;;;;;;5045889;28;20028;-33
2023/09/15 08:58:24;;;;;;;15.50;10.32;;;18.40;99.90;;;;;;5047644;28;20028;-32
2023/09/15 09:00:51;;;;;;;15.65;10.20;;;18.50;99.90;;;;;;5050224;28;20090;-30
2023/09/15 09:03:17;;;;;;;15.05;9.80;;;18.40;99.90;;;;;;5059377;28;20094;-31
2023/09/15 09:05:46;;;;;;;16.17;9.50;;;18.50;99.90;;;;;;5050187;28;20037;-30
2023/09/15 09:08:13;;;;;;;15.00;9.27;;;18.70;99.90;;;;;;5060923;28;20030;-30
2023/09/15 09:10:39;;;;;;;15.15;9.70;;;18.90;99.90;;;;;;5047438;28;20025;-33
2023/09/15 09:13:05;;;;;;;16.25;10.50;;;18.90;99.90;;;;;;5052589;28;20025;-33
2023/09/15 09:15:32;;;;;;;16.35;11.35;;;18.80;99.90;;;;;;5064582;28;20463;-30
2023/09/15 09:17:58;;;;;;;15.50;10.68;;;18.80;99.90;;;;;;5049070;28;20564;-35
2023/09/15 09:20:28;;;;;;;16.25;10.68;;;18.80;99.90;;;;;;5051310;28;20068;-30
2023/09/15 09:22:54;;;;;;;19.27;10.55;;;18.70;99.90;;;;;;5065012;28;20501;-30
2023/09/15 09:25:28;;;;;;;13.32;9.52;;;18.70;99.90;;;;;;5039154;28;20033;-30
2023/09/15 09:27:55;;;;;;;13.10;8.90;;;18.80;99.90;;;;;;5049447;28;20037;-30
2023/09/15 09:30:23;;;;;;;14.20;9.85;;;19.00;99.90;;;;;;5045766;28;20122;-31
2023/09/15 09:32:49;;;;;;;15.77;10.18;;;19.10;99.90;;;;;;5048561;28;20045;-31
2023/09/15 09:35:15;;;;;;;15.07;10.27;;;19.30;99.90;;;;;;5048060;28;20112;-31
2023/09/15 09:37:41;;;;;;;16.80;10.55;;;19.20;99.90;;;;;;5046466;28;20168;-30
2023/09/15 09:40:07;;;;;;;16.95;10.07;;;19.30;99.90;;;;;;5050051;28;20033;-31
2023/09/15 09:42:36;;;;;;;13.25;9.48;;;19.30;99.90;;;;;;5048680;28;20699;-30
2023/09/15 09:45:03;;;;;;;14.25;9.18;;;19.30;99.90;;;;;;5046629;28;20521;-32
2023/09/15 09:47:29;;;;;;;12.45;9.05;;;19.40;99.90;;;;;;5046751;28;20040;-32
2023/09/15 09:49:55;;;;;;;13.15;8.80;;;19.50;99.90;;;;;;5048060;28;20029;-33
2023/09/15 09:52:22;;;;;;;14.00;9.05;;;19.30;99.90;;;;;;5044893;28;20126;-32
2023/09/15 09:54:50;;;;;;;11.77;8.50;;;19.50;99.90;;;;;;5045219;28;20064;-32
2023/09/15 09:57:16;;;;;;;14.98;10.70;;;19.70;99.90;;;;;;5044890;28;20593;-34
2023/09/15 09:59:44;;;;;;;11.18;8.13;;;19.90;99.90;;;;;;5045845;28;20025;-32
2023/09/15 10:02:11;;;;;;;14.65;9.27;;;19.90;99.90;;;;;;5044917;28;20037;-33
2023/09/15 10:04:36;;;;;;;13.40;9.25;;;20.00;99.90;;;;;;5048550;28;20032;-32
2023/09/15 10:07:04;;;;;;;14.60;9.98;;;20.30;99.90;;;;;;5046572;28;20037;-33
2023/09/15 10:09:31;;;;;;;16.13;11.07;;;20.30;99.90;;;;;;5046688;28;20029;-32
2023/09/15 10:11:57;;;;;;;14.68;9.73;;;20.10;99.90;;;;;;5049248;28;20050;-35
2023/09/15 10:14:25;;;;;;;13.80;9.63;;;20.10;99.90;;;;;;5046794;28;20565;-32
2023/09/15 10:16:51;;;;;;;15.05;10.75;;;20.10;99.90;;;;;;5046146;28;20024;-32
2023/09/15 10:19:18;;;;;;;14.27;10.32;;;20.30;99.90;;;;;;5041198;28;20029;-32
2023/09/15 10:21:44;;;;;;;13.98;9.40;;;20.40;99.90;;;;;;5044184;28;20059;-32
2023/09/15 10:24:12;;;;;;;12.40;9.10;;;20.50;99.90;;;;;;5041854;28;20037;-32
2023/09/15 10:26:44;;;;;;;10.30;7.78;;;20.70;99.90;;;;;;5040757;28;20421;-32
2023/09/15 10:29:13;;;;;;;12.20;8.15;;;20.80;99.90;;;;;;5042272;28;20032;-32
2023/09/15 10:31:44;;;;;;;14.30;10.45;;;20.90;99.90;;;;;;5042824;28;20041;-33
2023/09/15 10:34:10;;;;;;;14.45;9.48;;;20.90;99.90;;;;;;5043607;28;20021;-32
2023/09/15 10:36:35;;;;;;;11.48;8.02;;;20.90;99.90;;;;;;5045976;28;20021;-34
2023/09/15 10:39:16;;;;;;;13.32;9.23;;;20.90;99.90;;;;;;5041797;28;20443;-33
2023/09/15 10:41:43;;;;;;;11.45;8.50;;;20.80;99.90;;;;;;5041515;28;20024;-32
2023/09/15 10:44:10;;;;;;;11.40;8.67;;;20.70;99.90;;;;;;5047713;28;20045;-32
2023/09/15 10:46:41;;;;;;;12.23;8.40;;;20.80;99.90;;;;;;5045202;28;20529;-33
2023/09/15 10:49:32;;;;;;;12.25;8.93;;;20.80;99.90;;;;;;5046025;28;20072;-32
2023/09/15 10:52:00;;;;;;;12.02;7.95;;;20.90;99.90;;;;;;5042292;28;20627;-34
2023/09/15 10:54:34;;;;;;;11.13;8.27;;;20.90;99.90;;;;;;5046332;28;20029;-30
2023/09/15 10:57:01;;;;;;;11.73;9.02;;;21.10;99.90;;;;;;5042793;28;20119;-31
2023/09/15 10:59:26;;;;;;;12.10;9.02;;;21.20;99.90;;;;;;5048728;28;20036;-31
2023/09/15 11:01:53;;;;;;;12.70;9.75;;;21.20;99.90;;;;;;5048302;28;20511;-30
2023/09/15 11:04:22;;;;;;;10.90;8.07;;;21.30;99.90;;;;;;5046540;28;20044;-31
2023/09/15 11:06:50;;;;;;;11.10;8.00;;;21.20;99.90;;;;;;5042692;28;20028;-29
2023/09/15 11:09:17;;;;;;;10.65;7.47;;;21.30;99.90;;;;;;5047940;28;20123;-32
2023/09/15 11:11:45;;;;;;;11.98;7.78;;;21.50;99.90;;;;;;5048440;28;20127;-30
2023/09/15 11:14:22;;;;;;;9.13;6.80;;;21.60;99.90;;;;;;5047174;28;20085;-30
2023/09/15 11:16:54;;;;;;;9.10;7.30;;;21.50;99.90;;;;;;5046141;28;20067;-29
2023/09/15 11:19:22;;;;;;;10.90;7.45;;;21.50;99.90;;;;;;5042821;28;21046;-30
2023/09/15 11:21:48;;;;;;;10.93;7.57;;;21.60;99.90;;;;;;5039625;28;20423;-31
2023/09/15 11:24:15;;;;;;;10.98;7.55;;;21.50;99.90;;;;;;5040046;28;20083;-34
2023/09/15 11:26:49;;;;;;;10.50;7.90;;;21.60;99.90;;;;;;5046947;28;20029;-30
2023/09/15 11:29:16;;;;;;;9.10;7.47;;;21.80;99.90;;;;;;5055333;28;20433;-30
2023/09/15 11:31:43;;;;;;;8.70;7.38;;;21.40;99.90;;;;;;5044041;28;20029;-30
2023/09/15 11:34:13;;;;;;;7.82;7.03;;;21.40;99.90;;;;;;5050479;28;20044;-39
2023/09/15 11:36:39;;;;;;;11.07;7.60;;;21.10;99.90;;;;;;5050084;28;20036;-40
2023/09/15 11:39:10;;;;;;;9.27;7.25;;;21.30;99.90;;;;;;5045870;28;20032;-39
2023/09/15 11:41:38;;;;;;;10.90;7.80;;;21.40;99.90;;;;;;5047669;28;20529;-37
2023/09/15 11:44:06;;;;;;;10.30;7.13;;;21.50;99.90;;;;;;5045489;28;20558;-34
2023/09/15 11:46:36;;;;;;;11.23;6.90;;;21.50;99.90;;;;;;5045623;28;20275;-37
2023/09/15 11:49:03;;;;;;;8.60;7.18;;;21.40;99.90;;;;;;5050455;28;20040;-39
2023/09/15 11:51:29;;;;;;;7.53;6.25;;;21.40;99.90;;;;;;5049697;28;20091;-39
2023/09/15 11:53:58;;;;;;;10.57;7.40;;;21.40;99.90;;;;;;5050722;28;20040;-40
2023/09/15 11:56:24;;;;;;;8.45;7.07;;;21.40;99.90;;;;;;5043713;28;20021;-38
2023/09/15 11:58:50;;;;;;;10.07;6.07;;;21.60;99.90;;;;;;5046170;28;20040;-39
2023/09/15 12:01:18;;;;;;;9.13;7.07;;;21.60;99.90;;;;;;5044618;28;20041;-40
2023/09/15 12:03:47;;;;;;;9.77;6.78;;;21.80;99.90;;;;;;5046478;28;20491;-39
2023/09/15 12:06:16;;;;;;;9.45;6.45;;;21.70;99.90;;;;;;5049221;28;20036;-37
2023/09/15 12:08:42;;;;;;;10.02;6.13;;;21.80;99.90;;;;;;5049772;28;20028;-40
2023/09/15 12:11:11;;;;;;;9.23;6.50;;;21.90;99.90;;;;;;5048865;28;20037;-39
2023/09/15 12:13:37;;;;;;;7.82;6.47;;;21.90;99.90;;;;;;5047871;28;20107;-40
2023/09/15 12:16:04;;;;;;;6.38;4.95;;;21.70;99.90;;;;;;5046489;28;20846;-35
2023/09/15 12:18:37;;;;;;;5.93;5.28;;;21.80;99.90;;;;;;5050823;28;20048;-40
2023/09/15 12:21:13;;;;;;;6.05;5.22;;;22.00;99.90;;;;;;5047155;28;20106;-38
2023/09/15 12:23:38;;;;;;;5.93;5.20;;;22.00;99.90;;;;;;5051400;28;20877;-38
2023/09/15 12:26:04;;;;;;;6.78;5.75;;;22.10;99.90;;;;;;5046670;28;20116;-35
2023/09/15 12:28:30;;;;;;;8.25;5.60;;;22.20;99.90;;;;;;5049604;28;20064;-40
2023/09/15 12:31:01;;;;;;;7.95;5.60;;;22.00;99.90;;;;;;5049825;28;20111;-38
2023/09/15 12:33:29;;;;;;;5.47;4.97;;;22.10;99.90;;;;;;5045350;28;20108;-40
2023/09/15 12:35:57;;;;;;;6.10;5.15;;;22.20;99.90;;;;;;5041533;28;20033;-39